createdAt,value
2023-03-05T00:01:24.461Z,102056.03
2023-03-05T00:03:54.477Z,102058.47
2023-03-05T00:06:23.717Z,102064.31
2023-03-05T00:08:53.554Z,102063.25
2023-03-05T00:11:22.037Z,102060.38
2023-03-05T00:13:52.241Z,102060.25
2023-03-05T00:16:20.585Z,102053.97
2023-03-05T00:18:48.621Z,102052.06
2023-03-05T00:21:18.437Z,102053.78
2023-03-05T00:23:46.095Z,102061.50
2023-03-05T00:26:13.629Z,102052.91
2023-03-05T00:28:41.503Z,102057.44
2023-03-05T00:31:08.803Z,102052.34
2023-03-05T00:33:36.041Z,102055.81
2023-03-05T00:36:06.994Z,102051.59
2023-03-05T00:38:36.453Z,102047.28
2023-03-05T00:41:06.271Z,102041.19
2023-03-05T00:43:33.498Z,102047.28
2023-03-05T00:46:00.853Z,102044.88
2023-03-05T00:48:28.239Z,102035.44
2023-03-05T00:50:55.679Z,102034.72
2023-03-05T00:53:23.022Z,102037.38
2023-03-05T00:55:51.812Z,102023.50
2023-03-05T00:58:20.332Z,102026.09
2023-03-05T01:00:50.658Z,102019.91
2023-03-05T01:03:19.116Z,102008.53
2023-03-05T01:05:46.394Z,102011.88
2023-03-05T01:08:13.663Z,102014.38
2023-03-05T01:10:40.892Z,102008.19
2023-03-05T01:13:08.482Z,101995.09
2023-03-05T01:15:35.765Z,102005.41
2023-03-05T01:18:03.109Z,102000.03
2023-03-05T01:20:30.402Z,101988.66
2023-03-05T01:22:59.235Z,101991.09
2023-03-05T01:25:26.645Z,101989.38
2023-03-05T01:27:54.122Z,101990.19
2023-03-05T01:30:21.430Z,101985.72
2023-03-05T01:32:48.703Z,101980.34
2023-03-05T01:35:22.206Z,101978.47
2023-03-05T01:37:49.533Z,101969.78
2023-03-05T01:40:26.143Z,101972.38
2023-03-05T01:43:12.186Z,101963.75
2023-03-05T01:46:18.070Z,101964.59
2023-03-05T01:48:50.302Z,101958.56
2023-03-05T01:51:20.132Z,101962.88
2023-03-05T01:53:47.872Z,101953.34
2023-03-05T01:56:16.484Z,101948.16
2023-03-05T01:58:45.019Z,101946.53
2023-03-05T02:01:13.090Z,101944.84
2023-03-05T02:03:41.924Z,101932.63
2023-03-05T02:06:09.781Z,101932.63
2023-03-05T02:08:37.098Z,101927.53
2023-03-05T02:11:04.774Z,101923.94
2023-03-05T02:13:38.270Z,101923.94
2023-03-05T02:16:08.582Z,101929.84
2023-03-05T02:18:36.260Z,101927.03
2023-03-05T02:21:06.004Z,101929.63
2023-03-05T02:23:38.613Z,101930.34
2023-03-05T02:26:09.678Z,101936.25
2023-03-05T02:28:44.564Z,101923.25
2023-03-05T02:31:24.040Z,101920.66
2023-03-05T02:33:54.022Z,101906.88
2023-03-05T02:36:22.790Z,101913.03
2023-03-05T02:38:50.611Z,101899.25
2023-03-05T02:41:18.048Z,101898.31
2023-03-05T02:43:45.719Z,101913.03
2023-03-05T02:46:13.225Z,101901.66
2023-03-05T02:48:43.062Z,101891.91
2023-03-05T02:51:12.794Z,101886.34
2023-03-05T02:53:40.039Z,101890.44
2023-03-05T02:56:07.657Z,101890.25
2023-03-05T02:58:36.533Z,101884.88
2023-03-05T03:01:04.121Z,101877.91
2023-03-05T03:03:31.817Z,101882.13
2023-03-05T03:05:59.653Z,101889.94
2023-03-05T03:08:27.040Z,101887.22
2023-03-05T03:10:56.462Z,101873.34
2023-03-05T03:13:25.330Z,101878.63
2023-03-05T03:16:04.776Z,101880.50
2023-03-05T03:18:32.090Z,101867.50
2023-03-05T03:20:59.799Z,101870.09
2023-03-05T03:23:28.183Z,101861.47
2023-03-05T03:25:55.675Z,101857.09
2023-03-05T03:28:23.014Z,101856.22
2023-03-05T03:30:51.666Z,101853.69
2023-03-05T03:33:18.960Z,101837.09
2023-03-05T03:35:46.586Z,101841.41
2023-03-05T03:38:14.588Z,101841.25
2023-03-05T03:40:42.278Z,101840.25
2023-03-05T03:43:09.685Z,101830.53
2023-03-05T03:45:41.763Z,101818.19
2023-03-05T03:48:09.431Z,101825.97
2023-03-05T03:50:43.853Z,101819.81
2023-03-05T03:53:14.443Z,101822.31
2023-03-05T03:55:51.051Z,101821.44
2023-03-05T03:58:18.291Z,101816.13
2023-03-05T04:00:45.612Z,101817.03
2023-03-05T04:03:12.865Z,101822.31
2023-03-05T04:05:40.152Z,101810.19
2023-03-05T04:08:12.081Z,101808.66
2023-03-05T04:10:42.171Z,101810.47
2023-03-05T04:13:09.431Z,101803.66
2023-03-05T04:15:36.789Z,101799.50
2023-03-05T04:18:04.364Z,101795.19
2023-03-05T04:20:31.724Z,101791.78
2023-03-05T04:22:58.994Z,101785.78
2023-03-05T04:25:26.321Z,101792.91
2023-03-05T04:28:00.896Z,101794.63
2023-03-05T04:30:28.199Z,101783.34
2023-03-05T04:32:55.485Z,101787.56
2023-03-05T04:35:23.108Z,101784.06
2023-03-05T04:37:50.683Z,101781.41
2023-03-05T04:40:18.288Z,101784.78
2023-03-05T04:42:45.930Z,101779.50
2023-03-05T04:45:13.274Z,101775.13
2023-03-05T04:47:40.529Z,101761.25
2023-03-05T04:50:09.822Z,101765.53
2023-03-05T04:52:42.736Z,101776.69
2023-03-05T04:55:11.905Z,101767.09
2023-03-05T04:57:40.312Z,101774.97
2023-03-05T05:00:16.996Z,101771.47
2023-03-05T05:02:46.805Z,101770.66
2023-03-05T05:05:16.422Z,101770.66
2023-03-05T05:07:44.766Z,101766.28
2023-03-05T05:10:15.233Z,101756.69
2023-03-05T05:12:43.007Z,101756.78
2023-03-05T05:15:12.737Z,101755.22
2023-03-05T05:17:40.253Z,101751.88
2023-03-05T05:20:10.872Z,101758.22
2023-03-05T05:22:38.320Z,101757.50
2023-03-05T05:25:06.399Z,101768.06
2023-03-05T05:27:33.997Z,101762.94
2023-03-05T05:30:01.428Z,101766.44
2023-03-05T05:32:28.756Z,101761.16
2023-03-05T05:34:57.923Z,101761.16
2023-03-05T05:37:26.699Z,101758.56
2023-03-05T05:39:54.214Z,101763.69
2023-03-05T05:42:23.806Z,101754.84
2023-03-05T05:44:51.426Z,101749.47
2023-03-05T05:47:18.965Z,101748.50
2023-03-05T05:49:46.536Z,101743.94
2023-03-05T05:52:13.951Z,101752.41
2023-03-05T05:54:41.344Z,101752.97
2023-03-05T05:57:09.060Z,101747.59
2023-03-05T05:59:38.504Z,101751.66
2023-03-05T06:02:07.928Z,101746.22
2023-03-05T06:04:36.178Z,101739.97
2023-03-05T06:07:04.131Z,101749.38
2023-03-05T06:09:32.590Z,101747.47
2023-03-05T06:11:59.811Z,101737.84
2023-03-05T06:14:27.230Z,101735.25
2023-03-05T06:16:54.753Z,101738.56
2023-03-05T06:19:22.051Z,101750.59
2023-03-05T06:21:49.300Z,101745.31
2023-03-05T06:24:16.555Z,101746.19
2023-03-05T06:26:43.875Z,101744.47
2023-03-05T06:29:11.072Z,101747.00
2023-03-05T06:31:39.671Z,101744.41
2023-03-05T06:34:07.241Z,101737.59
2023-03-05T06:36:34.684Z,101736.78
2023-03-05T06:39:01.991Z,101741.25
2023-03-05T06:41:31.576Z,101741.41
2023-03-05T06:44:03.269Z,101745.94
2023-03-05T06:46:37.245Z,101743.53
2023-03-05T06:49:05.361Z,101739.31
2023-03-05T06:51:35.716Z,101736.78
2023-03-05T06:54:06.724Z,101729.97
2023-03-05T06:56:36.484Z,101733.63
2023-03-05T06:59:04.416Z,101732.97
2023-03-05T07:01:33.824Z,101723.63
2023-03-05T07:04:03.053Z,101716.06
2023-03-05T07:06:36.115Z,101720.78
2023-03-05T07:09:04.433Z,101710.88
2023-03-05T07:11:32.558Z,101722.53
2023-03-05T07:14:00.516Z,101715.09
2023-03-05T07:16:30.964Z,101715.31
2023-03-05T07:19:00.466Z,101721.56
2023-03-05T07:21:30.182Z,101719.03
2023-03-05T07:24:00.683Z,101723.50
2023-03-05T07:26:28.512Z,101723.59
2023-03-05T07:28:56.679Z,101718.59
2023-03-05T07:31:27.513Z,101710.06
2023-03-05T07:33:54.901Z,101712.00
2023-03-05T07:36:22.241Z,101711.44
2023-03-05T07:38:49.597Z,101714.31
2023-03-05T07:41:23.657Z,101708.63
2023-03-05T07:43:55.669Z,101709.06
2023-03-05T07:46:27.163Z,101703.44
2023-03-05T07:48:55.354Z,101703.84
2023-03-05T07:51:24.140Z,101701.78
2023-03-05T07:53:53.181Z,101703.25
2023-03-05T07:56:32.119Z,101701.28
2023-03-05T07:59:01.418Z,101699.25
2023-03-05T08:01:30.411Z,101691.25
2023-03-05T08:03:57.799Z,101692.03
2023-03-05T08:06:25.122Z,101686.97
2023-03-05T08:08:52.442Z,101682.91
2023-03-05T08:11:19.841Z,101683.22
2023-03-05T08:13:47.134Z,101684.78
2023-03-05T08:16:17.638Z,101687.81
2023-03-05T08:18:45.747Z,101683.78
2023-03-05T08:21:29.471Z,101684.78
2023-03-05T08:23:57.793Z,101682.13
2023-03-05T08:26:27.767Z,101665.00
2023-03-05T08:28:55.747Z,101668.38
2023-03-05T08:31:25.995Z,101673.28
2023-03-05T08:33:55.670Z,101669.34
2023-03-05T08:36:23.170Z,101676.31
2023-03-05T08:38:51.228Z,101677.19
2023-03-05T08:41:19.301Z,101668.53
2023-03-05T08:43:46.707Z,101664.91
2023-03-05T08:46:16.465Z,101668.06
2023-03-05T08:48:43.922Z,101664.16
2023-03-05T08:51:17.745Z,101661.28
2023-03-05T08:53:46.729Z,101657.44
2023-03-05T08:56:15.376Z,101648.50
2023-03-05T08:58:44.694Z,101653.53
2023-03-05T09:01:13.098Z,101661.38
2023-03-05T09:03:41.112Z,101646.94
2023-03-05T09:06:10.985Z,101641.28
2023-03-05T09:08:39.147Z,101652.78
2023-03-05T09:11:08.488Z,101639.94
2023-03-05T09:13:36.193Z,101640.97
2023-03-05T09:16:06.716Z,101642.72
2023-03-05T09:18:37.112Z,101639.28
2023-03-05T09:21:06.016Z,101639.09
2023-03-05T09:23:33.264Z,101631.19
2023-03-05T09:26:00.620Z,101642.56
2023-03-05T09:28:28.127Z,101632.59
2023-03-05T09:30:55.333Z,101639.00
2023-03-05T09:33:22.609Z,101628.25
2023-03-05T09:35:49.964Z,101624.66
2023-03-05T09:38:18.983Z,101621.09
2023-03-05T09:40:58.572Z,101625.47
2023-03-05T09:44:02.420Z,101623.69
2023-03-05T09:46:48.602Z,101623.69
2023-03-05T09:49:47.147Z,101618.69
2023-03-05T09:52:22.783Z,101621.66
2023-03-05T09:54:56.676Z,101623.66
2023-03-05T09:57:42.501Z,101622.13
2023-03-05T10:00:21.942Z,101618.84
2023-03-05T10:02:55.819Z,101616.31
2023-03-05T10:05:31.141Z,101613.84
2023-03-05T10:08:03.588Z,101611.34
2023-03-05T10:10:52.819Z,101610.59
2023-03-05T10:13:25.600Z,101608.94
2023-03-05T10:15:58.945Z,101601.88
2023-03-05T10:18:32.330Z,101606.38
2023-03-05T10:21:04.554Z,101600.66
2023-03-05T10:23:38.421Z,101589.78
2023-03-05T10:26:56.375Z,101595.16
2023-03-05T10:29:59.076Z,101588.38
2023-03-05T10:32:42.080Z,101581.41
2023-03-05T10:35:12.453Z,101590.13
2023-03-05T10:37:56.103Z,101585.63
2023-03-05T10:40:26.877Z,101581.78
2023-03-05T10:43:12.999Z,101578.09
2023-03-05T10:45:49.805Z,101579.03
2023-03-05T10:48:42.730Z,101574.13
2023-03-05T10:51:24.629Z,101568.38
2023-03-05T10:54:02.017Z,101572.84
2023-03-05T10:56:31.859Z,101564.13
2023-03-05T10:58:59.345Z,101556.53
2023-03-05T11:01:33.427Z,101543.84
2023-03-05T11:04:04.298Z,101545.13
2023-03-05T11:06:43.158Z,101540.03
2023-03-05T11:09:24.611Z,101534.06
2023-03-05T11:12:20.414Z,101525.63
2023-03-05T11:15:22.890Z,101526.84
2023-03-05T11:18:17.105Z,101523.34
2023-03-05T11:20:45.382Z,101526.50
2023-03-05T11:23:14.292Z,101521.91
2023-03-05T11:26:12.484Z,101524.25
2023-03-05T11:28:55.059Z,101516.44
2023-03-05T11:31:26.077Z,101515.75
2023-03-05T11:33:59.476Z,101512.88
2023-03-05T11:36:26.844Z,101523.19
2023-03-05T11:38:56.153Z,101514.28
2023-03-05T11:41:29.572Z,101509.81
2023-03-05T11:43:58.985Z,101511.50
2023-03-05T11:46:27.994Z,101508.94
2023-03-05T11:48:58.715Z,101505.47
2023-03-05T11:51:36.920Z,101499.34
2023-03-05T11:54:08.889Z,101503.66
2023-03-05T11:56:37.476Z,101492.53
2023-03-05T11:59:20.124Z,101481.59
2023-03-05T12:01:52.357Z,101479.47
2023-03-05T12:04:20.745Z,101465.22
2023-03-05T12:07:10.722Z,101464.03
2023-03-05T12:09:42.230Z,101465.19
2023-03-05T12:12:38.642Z,101462.22
2023-03-05T12:15:12.329Z,101452.31
2023-03-05T12:17:51.183Z,101451.28
2023-03-05T12:20:30.082Z,101458.09
2023-03-05T12:22:57.790Z,101449.31
2023-03-05T12:25:44.672Z,101441.72
2023-03-05T12:28:30.952Z,101436.59
2023-03-05T12:31:04.223Z,101436.63
2023-03-05T12:33:40.781Z,101439.16
2023-03-05T12:36:34.342Z,101431.91
2023-03-05T12:39:01.723Z,101432.41
2023-03-05T12:41:28.928Z,101425.94
2023-03-05T12:44:05.643Z,101420.47
2023-03-05T12:46:35.860Z,101412.53
2023-03-05T12:49:23.086Z,101409.06
2023-03-05T12:51:52.446Z,101405.75
2023-03-05T12:54:28.563Z,101407.66
2023-03-05T12:56:59.170Z,101401.66
2023-03-05T12:59:42.772Z,101393.19
2023-03-05T13:02:34.477Z,101398.31
2023-03-05T13:05:08.758Z,101397.28
2023-03-05T13:07:36.670Z,101387.69
2023-03-05T13:10:04.241Z,101388.66
2023-03-05T13:12:32.482Z,101381.22
2023-03-05T13:15:06.951Z,101382.38
2023-03-05T13:17:51.865Z,101375.44
2023-03-05T13:20:25.367Z,101367.56
2023-03-05T13:23:08.015Z,101380.44
2023-03-05T13:25:35.305Z,101371.44
2023-03-05T13:28:12.038Z,101365.03
2023-03-05T13:30:40.070Z,101364.06
2023-03-05T13:33:19.133Z,101350.78
2023-03-05T13:35:47.350Z,101356.72
2023-03-05T13:38:28.596Z,101347.03
2023-03-05T13:41:19.542Z,101342.75
2023-03-05T13:43:54.780Z,101338.41
2023-03-05T13:46:38.746Z,101342.75
2023-03-05T13:49:23.943Z,101343.47
2023-03-05T13:51:54.727Z,101330.31
2023-03-05T13:54:23.727Z,101333.00
2023-03-05T13:56:55.686Z,101321.66
2023-03-05T13:59:29.648Z,101325.03
2023-03-05T14:01:59.529Z,101321.28
2023-03-05T14:04:29.690Z,101326.50
2023-03-05T14:07:05.801Z,101315.06
2023-03-05T14:09:38.986Z,101308.00
2023-03-05T14:12:21.490Z,101313.28
2023-03-05T14:14:49.254Z,101305.44
2023-03-05T14:17:38.680Z,101307.28
2023-03-05T14:20:27.630Z,101306.25
2023-03-05T14:23:26.835Z,101308.59
2023-03-05T14:26:19.461Z,101304.69
2023-03-05T14:29:17.502Z,101299.19
2023-03-05T14:32:06.308Z,101292.97
2023-03-05T14:34:38.162Z,101292.91
2023-03-05T14:37:17.550Z,101290.25
2023-03-05T14:40:21.968Z,101289.31
2023-03-05T14:43:00.174Z,101279.38
2023-03-05T14:45:32.635Z,101272.16
2023-03-05T14:48:02.050Z,101270.28
2023-03-05T14:50:33.231Z,101275.34
2023-03-05T14:53:03.957Z,101268.31
2023-03-05T14:55:32.079Z,101262.97
2023-03-05T14:58:12.660Z,101258.63
2023-03-05T15:00:41.540Z,101248.97
2023-03-05T15:03:13.765Z,101252.47
2023-03-05T15:05:44.720Z,101244.66
2023-03-05T15:08:19.857Z,101245.59
2023-03-05T15:10:47.417Z,101242.06
2023-03-05T15:13:15.899Z,101240.31
2023-03-05T15:15:45.304Z,101237.41
2023-03-05T15:18:14.759Z,101223.25
2023-03-05T15:20:42.420Z,101220.41
2023-03-05T15:23:10.136Z,101222.03
2023-03-05T15:25:37.406Z,101222.03
2023-03-05T15:28:06.268Z,101214.13
2023-03-05T15:30:38.960Z,101211.47
2023-03-05T15:33:09.542Z,101208.09
2023-03-05T15:35:37.287Z,101211.81
2023-03-05T15:38:05.071Z,101214.66
2023-03-05T15:40:33.076Z,101209.53
2023-03-05T15:43:01.223Z,101204.16
2023-03-05T15:45:39.025Z,101200.50
2023-03-05T15:48:13.164Z,101194.09
2023-03-05T15:50:45.466Z,101189.59
2023-03-05T15:53:32.534Z,101184.19
2023-03-05T15:56:02.402Z,101181.41
2023-03-05T15:58:40.229Z,101173.44
2023-03-05T16:01:29.718Z,101169.91
2023-03-05T16:04:05.455Z,101175.88
2023-03-05T16:06:34.641Z,101172.31
2023-03-05T16:09:04.847Z,101163.59
2023-03-05T16:11:40.646Z,101156.56
2023-03-05T16:14:10.361Z,101160.84
2023-03-05T16:16:39.185Z,101159.97
2023-03-05T16:19:10.527Z,101148.53
2023-03-05T16:21:38.352Z,101151.03
2023-03-05T16:24:08.864Z,101149.22
2023-03-05T16:26:39.090Z,101150.09
2023-03-05T16:29:10.215Z,101156.13
2023-03-05T16:31:42.007Z,101146.38
2023-03-05T16:34:10.319Z,101146.22
2023-03-05T16:36:37.842Z,101145.16
2023-03-05T16:39:05.816Z,101139.91
2023-03-05T16:41:36.662Z,101137.13
2023-03-05T16:44:04.999Z,101139.69
2023-03-05T16:46:34.997Z,101136.91
2023-03-05T16:49:03.840Z,101129.81
2023-03-05T16:51:33.668Z,101133.94
2023-03-05T16:54:01.311Z,101137.28
2023-03-05T16:56:28.843Z,101135.41
2023-03-05T16:58:56.594Z,101131.66
2023-03-05T17:01:24.511Z,101121.84
2023-03-05T17:03:53.667Z,101123.53
2023-03-05T17:06:24.817Z,101131.16
2023-03-05T17:08:52.789Z,101121.41
2023-03-05T17:11:21.767Z,101116.78
2023-03-05T17:13:50.385Z,101118.41
2023-03-05T17:16:19.385Z,101111.25
2023-03-05T17:18:47.462Z,101119.00
2023-03-05T17:21:15.612Z,101108.47
2023-03-05T17:23:43.132Z,101112.75
2023-03-05T17:26:13.378Z,101110.06
2023-03-05T17:28:41.567Z,101102.97
2023-03-05T17:31:08.906Z,101106.31
2023-03-05T17:33:36.945Z,101108.88
2023-03-05T17:36:06.126Z,101101.84
2023-03-05T17:38:33.569Z,101113.13
2023-03-05T17:41:00.814Z,101113.06
2023-03-05T17:43:28.115Z,101109.50
2023-03-05T17:45:59.743Z,101106.84
2023-03-05T17:48:27.920Z,101100.69
2023-03-05T17:50:55.359Z,101105.00
2023-03-05T17:53:23.071Z,101088.53
2023-03-05T17:55:50.425Z,101101.50
2023-03-05T17:58:17.736Z,101083.28
2023-03-05T18:00:45.469Z,101089.34
2023-03-05T18:03:12.789Z,101086.75
2023-03-05T18:05:41.120Z,101085.88
2023-03-05T18:08:08.629Z,101079.78
2023-03-05T18:10:36.375Z,101071.97
2023-03-05T18:13:03.956Z,101073.69
2023-03-05T18:15:33.440Z,101071.84
2023-03-05T18:18:01.385Z,101067.44
2023-03-05T18:20:37.182Z,101057.78
2023-03-05T18:23:05.710Z,101056.81
2023-03-05T18:25:33.125Z,101058.50
2023-03-05T18:28:02.546Z,101045.38
2023-03-05T18:30:30.829Z,101046.94
2023-03-05T18:32:59.231Z,101042.50
2023-03-05T18:35:29.042Z,101040.66
2023-03-05T18:37:57.104Z,101035.28
2023-03-05T18:40:27.432Z,101027.31
2023-03-05T18:42:55.416Z,101028.94
2023-03-05T18:45:23.226Z,101037.50
2023-03-05T18:47:54.202Z,101033.91
2023-03-05T18:50:24.262Z,101038.22
2023-03-05T18:52:52.308Z,101023.38
2023-03-05T18:55:24.219Z,101023.19
2023-03-05T18:57:52.300Z,101020.59
2023-03-05T19:00:23.378Z,101015.31
2023-03-05T19:02:51.065Z,101010.03
2023-03-05T19:05:19.153Z,101013.44
2023-03-05T19:07:47.281Z,101014.34
2023-03-05T19:10:16.196Z,101012.56
2023-03-05T19:12:57.921Z,101004.63
2023-03-05T19:15:25.463Z,100996.75
2023-03-05T19:17:53.524Z,101001.03
2023-03-05T19:20:20.958Z,100999.28
2023-03-05T19:22:50.893Z,101001.81
2023-03-05T19:25:18.595Z,100994.84
2023-03-05T19:27:46.050Z,100994.84
2023-03-05T19:30:14.322Z,100986.97
2023-03-05T19:32:41.704Z,100978.25
2023-03-05T19:35:13.869Z,100979.00
2023-03-05T19:37:41.250Z,100971.13
2023-03-05T19:40:16.145Z,100964.16
2023-03-05T19:42:43.560Z,100969.38
2023-03-05T19:45:11.263Z,100969.44
2023-03-05T19:47:39.127Z,100963.28
2023-03-05T19:50:07.690Z,100959.75
2023-03-05T19:52:35.307Z,100956.22
2023-03-05T19:55:02.646Z,100963.16
2023-03-05T19:57:30.149Z,100954.47
2023-03-05T19:59:57.497Z,100944.94
2023-03-05T20:02:24.932Z,100945.00
2023-03-05T20:04:54.924Z,100946.66
2023-03-05T20:07:22.246Z,100935.41
2023-03-05T20:09:54.018Z,100939.75
2023-03-05T20:12:22.622Z,100934.53
2023-03-05T20:14:49.936Z,100924.94
2023-03-05T20:17:17.384Z,100924.84
2023-03-05T20:19:44.649Z,100923.13
2023-03-05T20:22:12.186Z,100927.50
2023-03-05T20:24:39.393Z,100925.78
2023-03-05T20:27:07.306Z,100917.13
2023-03-05T20:29:34.491Z,100923.25
2023-03-05T20:32:02.160Z,100913.72
2023-03-05T20:34:31.256Z,100909.31
2023-03-05T20:36:58.617Z,100907.63
2023-03-05T20:39:25.952Z,100901.59
2023-03-05T20:41:53.391Z,100901.53
2023-03-05T20:44:20.588Z,100904.13
2023-03-05T20:47:02.698Z,100898.91
2023-03-05T20:49:30.227Z,100892.84
2023-03-05T20:51:57.772Z,100889.41
2023-03-05T20:54:27.339Z,100890.31
2023-03-05T20:56:56.101Z,100883.31
2023-03-05T20:59:24.860Z,100877.22
2023-03-05T21:01:52.205Z,100878.97
2023-03-05T21:04:19.756Z,100879.84
2023-03-05T21:06:53.293Z,100872.91
2023-03-05T21:09:20.545Z,100868.53
2023-03-05T21:11:47.915Z,100866.81
2023-03-05T21:14:15.183Z,100866.06
2023-03-05T21:16:42.520Z,100867.81
2023-03-05T21:19:09.863Z,100857.47
2023-03-05T21:21:38.981Z,100860.94
2023-03-05T21:24:06.618Z,100862.72
2023-03-05T21:26:34.114Z,100862.78
2023-03-05T21:29:01.582Z,100868.97
2023-03-05T21:31:29.456Z,100873.47
2023-03-05T21:33:59.526Z,100866.53
2023-03-05T21:36:26.997Z,100873.47
2023-03-05T21:38:54.518Z,100891.69
2023-03-05T21:41:23.206Z,100867.34
2023-03-05T21:43:50.786Z,100875.06
2023-03-05T21:46:18.273Z,100861.78
2023-03-05T21:48:45.739Z,100871.03
2023-03-05T21:51:13.774Z,100851.53
2023-03-05T21:53:43.612Z,100857.19
2023-03-05T21:56:17.678Z,100857.03
2023-03-05T21:58:46.869Z,100850.84
2023-03-05T22:01:16.152Z,100849.84
2023-03-05T22:03:43.536Z,100822.91
2023-03-05T22:06:13.602Z,100834.06
2023-03-05T22:08:41.058Z,100829.63
2023-03-05T22:11:14.815Z,100821.84
2023-03-05T22:13:42.436Z,100814.03
2023-03-05T22:16:11.628Z,100822.84
2023-03-05T22:18:39.190Z,100812.44
2023-03-05T22:21:17.160Z,100805.44
2023-03-05T22:23:44.601Z,100809.84
2023-03-05T22:26:11.871Z,100803.63
2023-03-05T22:28:39.322Z,100786.22
2023-03-05T22:31:06.615Z,100790.50
2023-03-05T22:33:34.121Z,100793.13
2023-03-05T22:36:07.987Z,100793.03
2023-03-05T22:38:35.370Z,100788.53
2023-03-05T22:41:07.922Z,100784.03
2023-03-05T22:43:35.835Z,100779.69
2023-03-05T22:46:21.705Z,100779.56
2023-03-05T22:48:49.465Z,100782.81
2023-03-05T22:51:17.761Z,100786.22
2023-03-05T22:53:46.091Z,100787.00
2023-03-05T22:56:16.797Z,100782.59
2023-03-05T22:58:44.238Z,100778.94
2023-03-05T23:01:12.833Z,100772.53
2023-03-05T23:03:41.768Z,100770.47
2023-03-05T23:06:09.681Z,100764.22
2023-03-05T23:08:37.116Z,100760.69
2023-03-05T23:11:10.452Z,100762.06
2023-03-05T23:13:38.897Z,100749.81
2023-03-05T23:16:06.601Z,100760.09
2023-03-05T23:18:34.006Z,100750.59
2023-03-05T23:21:01.438Z,100757.44
2023-03-05T23:23:28.727Z,100746.03
2023-03-05T23:25:55.988Z,100754.53
2023-03-05T23:28:23.367Z,100749.16
2023-03-05T23:30:50.677Z,100745.63
2023-03-05T23:33:24.437Z,100744.81
2023-03-05T23:35:57.658Z,100741.25
2023-03-05T23:38:27.379Z,100737.75
2023-03-05T23:40:59.746Z,100733.47
2023-03-05T23:43:28.769Z,100730.09
2023-03-05T23:45:57.213Z,100732.75
2023-03-05T23:48:26.859Z,100739.69
2023-03-05T23:50:55.535Z,100733.63
2023-03-05T23:53:31.325Z,100744.91
2023-03-05T23:55:59.087Z,100744.09
2023-03-05T23:58:28.835Z,100750.22
